createdAt,value
2022-09-26T00:01:35.097Z,85.00
2022-09-26T00:04:12.726Z,85.40
2022-09-26T00:06:40.336Z,85.80
2022-09-26T00:09:07.948Z,86.20
2022-09-26T00:11:36.386Z,86.90
2022-09-26T00:14:09.388Z,87.20
2022-09-26T00:16:37.863Z,87.70
2022-09-26T00:19:06.781Z,88.10
2022-09-26T00:21:38.854Z,88.60
2022-09-26T00:24:11.100Z,89.20
2022-09-26T00:26:40.441Z,89.50
2022-09-26T00:29:12.063Z,89.80
2022-09-26T00:31:43.317Z,90.10
2022-09-26T00:34:17.342Z,90.30
2022-09-26T00:36:45.585Z,90.50
2022-09-26T00:39:15.051Z,90.60
2022-09-26T00:41:44.882Z,90.80
2022-09-26T00:44:42.876Z,91.00
2022-09-26T00:47:19.573Z,91.10
2022-09-26T00:49:49.322Z,91.30
2022-09-26T00:52:41.993Z,91.40
2022-09-26T00:55:14.193Z,91.50
2022-09-26T00:57:53.852Z,91.50
2022-09-26T01:00:23.923Z,91.60
2022-09-26T01:02:54.084Z,91.60
2022-09-26T01:05:24.839Z,91.70
2022-09-26T01:07:53.917Z,91.80
2022-09-26T01:10:22.571Z,91.80
2022-09-26T01:12:55.968Z,91.90
2022-09-26T01:15:29.532Z,91.90
2022-09-26T01:17:58.883Z,92.00
2022-09-26T01:20:50.572Z,92.00
2022-09-26T01:23:33.346Z,92.20
2022-09-26T01:26:26.088Z,92.30
2022-09-26T01:29:15.592Z,92.40
2022-09-26T01:32:23.967Z,92.50
2022-09-26T01:35:03.102Z,92.50
2022-09-26T01:38:06.082Z,92.50
2022-09-26T01:40:57.386Z,92.60
2022-09-26T01:43:57.168Z,92.60
2022-09-26T01:46:41.598Z,92.70
2022-09-26T01:49:19.186Z,92.70
2022-09-26T01:52:06.136Z,92.80
2022-09-26T01:55:24.177Z,92.80
2022-09-26T01:58:16.760Z,92.80
2022-09-26T02:00:49.447Z,92.90
2022-09-26T02:03:27.930Z,92.90
2022-09-26T02:06:14.713Z,93.00
2022-09-26T02:08:49.044Z,93.00
2022-09-26T02:11:20.793Z,93.10
2022-09-26T02:14:24.794Z,93.10
2022-09-26T02:16:57.532Z,93.10
2022-09-26T02:19:32.179Z,93.10
2022-09-26T02:22:01.171Z,93.10
2022-09-26T02:24:29.807Z,93.00
2022-09-26T02:26:58.994Z,93.10
2022-09-26T02:29:26.634Z,93.10
2022-09-26T02:31:58.700Z,93.10
2022-09-26T02:34:27.239Z,93.10
2022-09-26T02:36:57.487Z,93.10
2022-09-26T02:39:30.700Z,93.10
2022-09-26T02:42:28.406Z,93.10
2022-09-26T02:45:22.428Z,93.10
2022-09-26T02:48:06.230Z,93.00
2022-09-26T02:51:03.970Z,93.00
2022-09-26T02:53:55.492Z,93.00
2022-09-26T02:56:50.396Z,93.10
2022-09-26T02:59:27.029Z,93.00
2022-09-26T03:02:11.397Z,93.00
2022-09-26T03:04:55.999Z,92.80
2022-09-26T03:07:29.976Z,92.30
2022-09-26T03:10:01.607Z,91.80
2022-09-26T03:12:31.985Z,91.50
2022-09-26T03:15:02.312Z,91.30
2022-09-26T03:17:34.966Z,91.10
2022-09-26T03:20:14.840Z,90.90
2022-09-26T03:22:45.062Z,90.70
2022-09-26T03:25:26.346Z,90.60
2022-09-26T03:28:05.886Z,90.50
2022-09-26T03:30:34.864Z,90.30
2022-09-26T03:33:24.348Z,90.20
2022-09-26T03:35:52.561Z,90.10
2022-09-26T03:38:22.149Z,90.00
2022-09-26T03:40:58.904Z,89.90
2022-09-26T03:43:45.317Z,89.70
2022-09-26T03:46:16.191Z,89.70
2022-09-26T03:48:44.188Z,89.80
2022-09-26T03:51:13.934Z,89.80
2022-09-26T03:53:46.217Z,89.90
2022-09-26T03:56:18.811Z,89.80
2022-09-26T03:58:49.212Z,89.90
2022-09-26T04:01:20.888Z,89.90
2022-09-26T04:03:51.137Z,89.90
2022-09-26T04:06:20.924Z,89.80
2022-09-26T04:08:51.974Z,89.70
2022-09-26T04:11:22.988Z,89.80
2022-09-26T04:13:53.793Z,90.30
2022-09-26T04:16:26.154Z,90.50
2022-09-26T04:19:00.911Z,90.60
2022-09-26T04:21:29.827Z,90.70
2022-09-26T04:23:59.520Z,90.80
2022-09-26T04:26:28.405Z,90.90
2022-09-26T04:28:59.217Z,91.00
2022-09-26T04:31:48.997Z,91.00
2022-09-26T04:34:26.886Z,91.20
2022-09-26T04:36:57.341Z,91.30
2022-09-26T04:39:25.806Z,91.40
2022-09-26T04:41:54.535Z,91.50
2022-09-26T04:44:22.958Z,91.50
2022-09-26T04:46:50.867Z,91.50
2022-09-26T04:49:21.797Z,91.60
2022-09-26T04:51:49.878Z,91.60
2022-09-26T04:54:18.737Z,91.60
2022-09-26T04:56:47.492Z,91.60
2022-09-26T04:59:15.205Z,91.50
2022-09-26T05:01:50.975Z,91.50
2022-09-26T05:04:27.623Z,91.40
2022-09-26T05:06:57.957Z,91.40
2022-09-26T05:09:34.146Z,91.30
2022-09-26T05:12:11.582Z,91.30
2022-09-26T05:14:43.925Z,91.30
2022-09-26T05:17:11.807Z,91.30
2022-09-26T05:19:40.439Z,91.50
2022-09-26T05:22:24.860Z,91.50
2022-09-26T05:25:10.920Z,91.70
2022-09-26T05:27:40.049Z,91.80
2022-09-26T05:30:08.173Z,91.70
2022-09-26T05:32:35.794Z,91.70
2022-09-26T05:35:05.630Z,91.60
2022-09-26T05:37:38.012Z,91.60
2022-09-26T05:40:24.587Z,91.50
2022-09-26T05:43:00.523Z,91.40
2022-09-26T05:45:31.420Z,91.40
2022-09-26T05:48:01.985Z,91.40
2022-09-26T05:50:29.894Z,91.30
2022-09-26T05:53:00.045Z,91.30
2022-09-26T05:55:29.600Z,91.20
2022-09-26T05:58:06.946Z,91.20
2022-09-26T06:01:11.263Z,91.10
2022-09-26T06:03:44.032Z,91.40
2022-09-26T06:06:20.452Z,91.70
2022-09-26T06:08:58.073Z,92.00
2022-09-26T06:11:51.511Z,92.30
2022-09-26T06:14:19.194Z,92.50
2022-09-26T06:16:47.128Z,92.40
2022-09-26T06:19:16.688Z,92.30
2022-09-26T06:21:47.265Z,92.50
2022-09-26T06:24:19.264Z,92.00
2022-09-26T06:26:49.635Z,91.50
2022-09-26T06:29:17.336Z,91.40
2022-09-26T06:48:32.533Z,91.30
2022-09-26T06:53:24.435Z,91.10
2022-09-26T06:56:00.743Z,91.10
2022-09-26T06:58:34.431Z,90.80
2022-09-26T07:04:49.565Z,90.30
2022-09-26T07:07:26.514Z,90.00
2022-09-26T07:09:57.519Z,89.70
2022-09-26T07:12:56.365Z,89.60
2022-09-26T07:15:27.608Z,89.50
2022-09-26T07:18:14.101Z,89.50
2022-09-26T07:21:08.158Z,89.50
2022-09-26T07:27:26.239Z,89.70
2022-09-26T07:30:03.497Z,89.70
2022-09-26T07:36:05.007Z,89.90
2022-09-26T07:39:11.950Z,90.10
2022-09-26T07:41:55.543Z,90.30
2022-09-26T07:48:24.371Z,90.60
2022-09-26T07:51:49.624Z,90.60
2022-09-26T07:54:29.123Z,90.80
2022-09-26T07:57:27.761Z,91.00
2022-09-26T08:00:21.653Z,91.00
2022-09-26T08:03:42.598Z,91.00
2022-09-26T08:06:25.099Z,90.90
2022-09-26T08:09:14.913Z,90.80
2022-09-26T08:12:02.386Z,90.70
2022-09-26T08:15:00.793Z,90.80
2022-09-26T08:17:39.369Z,91.20
2022-09-26T08:20:10.284Z,91.50
2022-09-26T08:22:38.568Z,91.50
2022-09-26T08:25:08.883Z,91.60
2022-09-26T08:28:00.005Z,91.70
2022-09-26T08:30:46.084Z,91.70
2022-09-26T08:33:22.222Z,91.90
2022-09-26T08:39:37.061Z,91.70
2022-09-26T08:42:44.764Z,91.90
2022-09-26T08:46:03.058Z,92.00
2022-09-26T09:05:42.859Z,91.40
2022-09-26T09:20:28.928Z,92.00
2022-09-26T09:30:17.617Z,91.00
2022-09-26T09:33:25.231Z,91.00
2022-09-26T09:36:26.112Z,90.90
2022-09-26T09:39:27.539Z,90.90
2022-09-26T09:42:30.747Z,90.90
2022-09-26T09:45:15.715Z,90.90
2022-09-26T09:47:54.993Z,90.40
2022-09-26T09:50:34.887Z,90.20
2022-09-26T09:53:12.181Z,89.70
2022-09-26T09:55:59.362Z,89.10
2022-09-26T09:58:47.665Z,88.50
2022-09-26T10:01:21.873Z,88.20
2022-09-26T10:03:59.443Z,88.30
2022-09-26T10:06:45.565Z,88.00
2022-09-26T10:09:35.365Z,87.10
2022-09-26T10:12:31.633Z,86.30
2022-09-26T10:15:27.398Z,85.60
2022-09-26T10:18:26.820Z,84.70
2022-09-26T10:21:50.654Z,84.20
2022-09-26T11:32:43.284Z,74.40
2022-09-26T11:36:09.068Z,74.00
2022-09-26T11:38:45.026Z,72.60
2022-09-26T11:41:36.836Z,71.50
2022-09-26T11:44:40.651Z,70.10
2022-09-26T11:48:07.079Z,69.00
2022-09-26T11:51:14.218Z,66.60
2022-09-26T11:54:23.816Z,65.00
2022-09-26T11:57:22.296Z,63.70
2022-09-26T11:59:56.124Z,63.90
2022-09-26T12:02:40.043Z,63.30
2022-09-26T12:05:27.854Z,62.30
2022-09-26T12:08:13.936Z,62.80
2022-09-26T12:11:02.162Z,62.60
2022-09-26T12:13:56.055Z,61.50
2022-09-26T12:16:58.813Z,60.80
2022-09-26T12:19:50.950Z,62.20
2022-09-26T12:22:30.376Z,63.00
2022-09-26T12:25:23.227Z,62.70
2022-09-26T12:28:25.572Z,61.10
2022-09-26T12:31:14.905Z,59.60
2022-09-26T12:34:01.288Z,59.80
2022-09-26T12:36:51.263Z,59.50
2022-09-26T12:39:25.426Z,60.50
2022-09-26T12:42:28.018Z,61.50
2022-09-26T12:45:53.335Z,62.50
2022-09-26T12:48:36.925Z,63.10
2022-09-26T12:51:27.245Z,62.50
2022-09-26T12:54:43.987Z,61.70
2022-09-26T12:57:16.234Z,61.20
2022-09-26T13:00:01.671Z,61.00
2022-09-26T13:02:56.119Z,59.40
2022-09-26T13:05:48.625Z,59.30
2022-09-26T13:08:37.783Z,58.70
2022-09-26T13:11:14.846Z,59.60
2022-09-26T13:14:08.096Z,60.30
2022-09-26T13:17:00.750Z,61.20
2022-09-26T13:19:51.688Z,61.80
2022-09-26T13:22:32.973Z,61.80
2022-09-26T13:25:21.793Z,61.00
2022-09-26T13:27:56.218Z,61.20
2022-09-26T13:30:28.477Z,61.60
2022-09-26T13:33:03.387Z,61.50
2022-09-26T13:35:37.219Z,62.10
2022-09-26T13:38:17.096Z,62.80
2022-09-26T13:40:51.671Z,63.50
2022-09-26T13:43:34.870Z,63.00
2022-09-26T13:46:34.583Z,60.90
2022-09-26T13:49:26.299Z,59.80
2022-09-26T13:52:00.206Z,58.30
2022-09-26T13:55:04.912Z,57.50
2022-09-26T13:57:39.953Z,53.30
2022-09-26T14:00:23.973Z,50.60
2022-09-26T14:03:11.320Z,49.30
2022-09-26T14:05:42.197Z,49.10
2022-09-26T14:08:43.806Z,48.80
2022-09-26T14:11:36.279Z,48.10
2022-09-26T14:14:19.642Z,48.50
2022-09-26T14:16:54.300Z,48.50
2022-09-26T14:19:41.326Z,48.80
2022-09-26T14:22:21.563Z,49.90
2022-09-26T14:24:50.459Z,51.00
2022-09-26T14:27:18.842Z,52.20
2022-09-26T14:30:01.217Z,53.50
2022-09-26T14:32:43.744Z,54.00
2022-09-26T14:35:38.163Z,54.50
2022-09-26T14:38:17.458Z,54.30
2022-09-26T14:40:58.239Z,53.70
2022-09-26T14:43:32.371Z,52.20
2022-09-26T14:46:04.697Z,50.60
2022-09-26T14:48:37.626Z,50.10
2022-09-26T14:51:27.565Z,51.00
2022-09-26T14:54:17.927Z,51.00
2022-09-26T14:57:00.104Z,51.40
2022-09-26T14:59:35.016Z,51.90
2022-09-26T15:02:38.866Z,52.60
2022-09-26T15:05:22.971Z,52.00
2022-09-26T15:07:57.128Z,52.30
2022-09-26T15:10:25.073Z,52.60
2022-09-26T15:13:13.332Z,53.10
2022-09-26T15:15:53.041Z,51.70
2022-09-26T15:18:45.404Z,48.30
2022-09-26T15:21:27.827Z,48.20
2022-09-26T15:23:57.813Z,48.20
2022-09-26T15:26:33.556Z,49.80
2022-09-26T15:29:02.196Z,51.70
2022-09-26T15:31:37.538Z,53.40
2022-09-26T15:34:16.894Z,55.00
2022-09-26T15:36:49.015Z,56.50
2022-09-26T15:39:31.942Z,57.40
2022-09-26T15:42:21.092Z,59.80
2022-09-26T15:44:54.826Z,63.10
2022-09-26T15:47:34.271Z,66.60
2022-09-26T15:50:25.867Z,68.50
2022-09-26T15:53:00.368Z,69.80
2022-09-26T15:55:35.720Z,70.30
2022-09-26T15:58:08.463Z,70.80
2022-09-26T16:00:40.330Z,70.90
2022-09-26T16:03:19.741Z,70.90
2022-09-26T16:05:49.237Z,71.30
2022-09-26T16:08:28.780Z,70.80
2022-09-26T16:12:04.890Z,71.00
2022-09-26T16:18:15.112Z,70.60
2022-09-26T16:21:36.056Z,70.20
2022-09-26T16:24:34.524Z,70.60
2022-09-26T16:27:25.890Z,71.80
2022-09-26T16:30:27.933Z,73.70
2022-09-26T16:33:11.781Z,75.70
2022-09-26T16:35:55.259Z,77.60
2022-09-26T16:38:30.678Z,79.30
2022-09-26T16:42:11.372Z,80.30
2022-09-26T16:44:48.667Z,81.00
2022-09-26T16:59:39.928Z,83.60
2022-09-26T17:03:00.057Z,84.20
2022-09-26T17:05:28.078Z,84.50
2022-09-26T17:07:55.656Z,84.80
2022-09-26T17:10:25.597Z,85.00
2022-09-26T17:12:54.484Z,85.00
2022-09-26T17:15:28.383Z,85.10
2022-09-26T17:17:57.931Z,85.10
2022-09-26T17:20:26.909Z,85.40
2022-09-26T17:22:55.001Z,85.30
2022-09-26T17:25:25.290Z,84.40
2022-09-26T17:27:58.124Z,83.50
2022-09-26T17:30:26.028Z,83.30
2022-09-26T17:32:54.537Z,83.40
2022-09-26T17:35:27.984Z,83.80
2022-09-26T17:37:56.300Z,84.20
2022-09-26T17:40:27.140Z,84.70
2022-09-26T17:42:56.765Z,85.00
2022-09-26T17:45:29.419Z,85.20
2022-09-26T17:48:04.913Z,85.50
2022-09-26T17:50:35.899Z,85.80
2022-09-26T18:21:58.100Z,87.10
2022-09-26T18:24:30.194Z,87.00
2022-09-26T18:27:04.109Z,87.00
2022-09-26T18:29:43.720Z,87.00
2022-09-26T18:32:26.159Z,87.00
2022-09-26T18:34:55.440Z,87.10
2022-09-26T18:49:13.863Z,87.50
2022-09-26T19:06:03.171Z,88.60
2022-09-26T19:09:17.363Z,88.60
2022-09-26T19:12:03.902Z,89.00
2022-09-26T19:14:36.849Z,89.10
2022-09-26T19:45:03.491Z,90.20
2022-09-26T19:48:06.019Z,90.30
2022-09-26T19:55:09.816Z,90.60
2022-09-26T19:58:12.676Z,90.50
2022-09-26T20:24:26.517Z,90.20
2022-09-26T20:27:00.607Z,90.40
2022-09-26T20:29:38.089Z,90.50
2022-09-26T20:32:54.031Z,90.60
2022-09-26T20:43:54.077Z,90.20
2022-09-26T20:50:22.611Z,90.30
2022-09-26T20:53:15.482Z,90.50
2022-09-26T21:20:48.839Z,91.00
2022-09-26T22:04:54.084Z,89.50
2022-09-26T22:07:49.301Z,88.60
2022-09-26T22:21:52.704Z,87.50
2022-09-26T22:32:54.887Z,88.00
2022-09-26T22:41:31.510Z,88.00
2022-09-26T22:49:10.768Z,88.10
2022-09-26T23:16:56.051Z,88.50
2022-09-26T23:44:49.525Z,88.20
2022-09-26T23:48:05.764Z,88.10
2022-09-26T23:50:53.555Z,88.20
